sensor_id;sensor_type;location;lat;lon;timestamp;P1;durP1;ratioP1;P2;durP2;ratioP2
3779;SDS011;1905;52.482;9.802;2023-02-08T00:01:00;35.57;;;16.63;;
3779;SDS011;1905;52.482;9.802;2023-02-08T00:03:33;42.63;;;16.43;;
3779;SDS011;1905;52.482;9.802;2023-02-08T00:06:01;29.37;;;14.20;;
3779;SDS011;1905;52.482;9.802;2023-02-08T00:08:28;27.20;;;13.33;;
3779;SDS011;1905;52.482;9.802;2023-02-08T00:10:56;28.07;;;15.10;;
3779;SDS011;1905;52.482;9.802;2023-02-08T00:13:24;32.80;;;16.90;;
3779;SDS011;1905;52.482;9.802;2023-02-08T00:15:52;30.90;;;16.87;;
3779;SDS011;1905;52.482;9.802;2023-02-08T00:18:21;27.37;;;14.47;;
3779;SDS011;1905;52.482;9.802;2023-02-08T00:20:50;31.90;;;14.63;;
3779;SDS011;1905;52.482;9.802;2023-02-08T00:23:18;28.83;;;14.73;;
3779;SDS011;1905;52.482;9.802;2023-02-08T00:25:46;28.40;;;15.43;;
3779;SDS011;1905;52.482;9.802;2023-02-08T00:28:14;27.83;;;14.93;;
3779;SDS011;1905;52.482;9.802;2023-02-08T00:30:42;46.47;;;18.27;;
3779;SDS011;1905;52.482;9.802;2023-02-08T00:33:10;40.77;;;17.33;;
3779;SDS011;1905;52.482;9.802;2023-02-08T00:35:39;31.80;;;17.30;;
3779;SDS011;1905;52.482;9.802;2023-02-08T00:38:07;42.97;;;17.07;;
3779;SDS011;1905;52.482;9.802;2023-02-08T00:40:35;34.00;;;16.30;;
3779;SDS011;1905;52.482;9.802;2023-02-08T00:43:02;47.73;;;19.40;;
3779;SDS011;1905;52.482;9.802;2023-02-08T00:45:54;40.70;;;18.50;;
3779;SDS011;1905;52.482;9.802;2023-02-08T00:48:23;38.53;;;16.93;;
3779;SDS011;1905;52.482;9.802;2023-02-08T00:51:02;38.73;;;16.30;;
3779;SDS011;1905;52.482;9.802;2023-02-08T00:53:33;32.23;;;15.07;;
3779;SDS011;1905;52.482;9.802;2023-02-08T00:56:03;31.30;;;14.90;;
3779;SDS011;1905;52.482;9.802;2023-02-08T00:58:31;39.60;;;15.83;;
3779;SDS011;1905;52.482;9.802;2023-02-08T01:01:00;40.47;;;17.30;;
3779;SDS011;1905;52.482;9.802;2023-02-08T01:03:31;27.47;;;14.10;;
3779;SDS011;1905;52.482;9.802;2023-02-08T01:06:00;45.90;;;17.70;;
3779;SDS011;1905;52.482;9.802;2023-02-08T01:08:31;48.00;;;20.20;;
3779;SDS011;1905;52.482;9.802;2023-02-08T01:11:02;37.40;;;19.70;;
3779;SDS011;1905;52.482;9.802;2023-02-08T01:13:31;45.40;;;19.30;;
3779;SDS011;1905;52.482;9.802;2023-02-08T01:16:04;38.20;;;16.40;;
3779;SDS011;1905;52.482;9.802;2023-02-08T01:18:33;37.10;;;16.27;;
3779;SDS011;1905;52.482;9.802;2023-02-08T01:21:06;56.90;;;19.00;;
3779;SDS011;1905;52.482;9.802;2023-02-08T01:23:34;37.83;;;17.03;;
3779;SDS011;1905;52.482;9.802;2023-02-08T01:26:02;31.90;;;16.87;;
3779;SDS011;1905;52.482;9.802;2023-02-08T01:28:30;52.87;;;18.80;;
3779;SDS011;1905;52.482;9.802;2023-02-08T01:30:58;33.57;;;16.17;;
3779;SDS011;1905;52.482;9.802;2023-02-08T01:33:27;40.20;;;17.97;;
3779;SDS011;1905;52.482;9.802;2023-02-08T01:35:54;39.90;;;16.07;;
3779;SDS011;1905;52.482;9.802;2023-02-08T01:38:23;37.60;;;16.53;;
3779;SDS011;1905;52.482;9.802;2023-02-08T01:40:51;41.23;;;14.80;;
3779;SDS011;1905;52.482;9.802;2023-02-08T01:43:19;43.50;;;18.10;;
3779;SDS011;1905;52.482;9.802;2023-02-08T01:45:50;37.93;;;16.67;;
3779;SDS011;1905;52.482;9.802;2023-02-08T01:48:19;55.70;;;17.97;;
3779;SDS011;1905;52.482;9.802;2023-02-08T01:50:51;36.63;;;17.83;;
3779;SDS011;1905;52.482;9.802;2023-02-08T01:53:25;45.83;;;17.60;;
3779;SDS011;1905;52.482;9.802;2023-02-08T01:55:58;37.90;;;15.90;;
3779;SDS011;1905;52.482;9.802;2023-02-08T01:58:28;36.87;;;15.43;;
3779;SDS011;1905;52.482;9.802;2023-02-08T02:00:59;51.43;;;18.03;;
3779;SDS011;1905;52.482;9.802;2023-02-08T02:03:27;37.90;;;17.10;;
3779;SDS011;1905;52.482;9.802;2023-02-08T02:05:56;46.47;;;17.67;;
3779;SDS011;1905;52.482;9.802;2023-02-08T02:08:31;28.97;;;15.40;;
3779;SDS011;1905;52.482;9.802;2023-02-08T02:10:58;32.10;;;15.80;;
3779;SDS011;1905;52.482;9.802;2023-02-08T02:13:26;33.57;;;14.60;;
3779;SDS011;1905;52.482;9.802;2023-02-08T02:15:54;42.27;;;17.17;;
3779;SDS011;1905;52.482;9.802;2023-02-08T02:18:22;35.60;;;16.57;;
3779;SDS011;1905;52.482;9.802;2023-02-08T02:21:04;30.63;;;14.03;;
3779;SDS011;1905;52.482;9.802;2023-02-08T02:33:02;35.57;;;16.23;;
3779;SDS011;1905;52.482;9.802;2023-02-08T02:35:42;32.50;;;15.10;;
3779;SDS011;1905;52.482;9.802;2023-02-08T02:38:15;39.87;;;16.60;;
3779;SDS011;1905;52.482;9.802;2023-02-08T02:40:54;42.33;;;16.33;;
3779;SDS011;1905;52.482;9.802;2023-02-08T02:43:29;43.20;;;16.90;;
3779;SDS011;1905;52.482;9.802;2023-02-08T02:46:10;33.37;;;14.27;;
3779;SDS011;1905;52.482;9.802;2023-02-08T02:48:48;42.03;;;17.63;;
3779;SDS011;1905;52.482;9.802;2023-02-08T02:51:21;39.33;;;18.43;;
3779;SDS011;1905;52.482;9.802;2023-02-08T02:53:54;30.87;;;17.83;;
3779;SDS011;1905;52.482;9.802;2023-02-08T02:56:28;33.23;;;15.30;;
3779;SDS011;1905;52.482;9.802;2023-02-08T02:58:59;43.30;;;17.07;;
3779;SDS011;1905;52.482;9.802;2023-02-08T03:01:31;48.60;;;16.37;;
3779;SDS011;1905;52.482;9.802;2023-02-08T03:04:10;37.73;;;16.63;;
3779;SDS011;1905;52.482;9.802;2023-02-08T03:06:40;39.37;;;17.40;;
3779;SDS011;1905;52.482;9.802;2023-02-08T03:09:29;37.93;;;16.10;;
3779;SDS011;1905;52.482;9.802;2023-02-08T03:12:18;31.03;;;15.07;;
3779;SDS011;1905;52.482;9.802;2023-02-08T03:14:57;31.77;;;12.20;;
3779;SDS011;1905;52.482;9.802;2023-02-08T03:17:32;35.03;;;15.00;;
3779;SDS011;1905;52.482;9.802;2023-02-08T03:20:12;40.27;;;16.77;;
3779;SDS011;1905;52.482;9.802;2023-02-08T03:22:44;38.63;;;15.93;;
3779;SDS011;1905;52.482;9.802;2023-02-08T03:25:22;37.13;;;14.80;;
3779;SDS011;1905;52.482;9.802;2023-02-08T03:27:54;28.13;;;14.23;;
3779;SDS011;1905;52.482;9.802;2023-02-08T03:30:33;34.23;;;15.97;;
3779;SDS011;1905;52.482;9.802;2023-02-08T03:33:14;37.23;;;17.27;;
3779;SDS011;1905;52.482;9.802;2023-02-08T03:35:48;38.87;;;16.07;;
3779;SDS011;1905;52.482;9.802;2023-02-08T03:38:20;36.30;;;16.10;;
3779;SDS011;1905;52.482;9.802;2023-02-08T03:40:52;38.97;;;14.73;;
3779;SDS011;1905;52.482;9.802;2023-02-08T03:43:22;25.93;;;13.70;;
3779;SDS011;1905;52.482;9.802;2023-02-08T03:45:56;36.20;;;16.80;;
3779;SDS011;1905;52.482;9.802;2023-02-08T03:48:29;44.67;;;16.83;;
3779;SDS011;1905;52.482;9.802;2023-02-08T03:51:00;33.00;;;15.10;;
3779;SDS011;1905;52.482;9.802;2023-02-08T03:53:30;31.23;;;14.67;;
3779;SDS011;1905;52.482;9.802;2023-02-08T03:56:09;34.03;;;17.27;;
3779;SDS011;1905;52.482;9.802;2023-02-08T03:58:43;34.97;;;17.20;;
3779;SDS011;1905;52.482;9.802;2023-02-08T04:01:15;39.07;;;17.17;;
3779;SDS011;1905;52.482;9.802;2023-02-08T04:03:48;36.43;;;15.40;;
3779;SDS011;1905;52.482;9.802;2023-02-08T04:06:20;35.80;;;14.40;;
3779;SDS011;1905;52.482;9.802;2023-02-08T04:08:48;29.10;;;16.37;;
3779;SDS011;1905;52.482;9.802;2023-02-08T04:11:16;26.67;;;15.20;;
3779;SDS011;1905;52.482;9.802;2023-02-08T04:13:44;28.43;;;14.30;;
3779;SDS011;1905;52.482;9.802;2023-02-08T04:16:12;32.40;;;13.70;;
3779;SDS011;1905;52.482;9.802;2023-02-08T04:18:39;38.87;;;15.30;;
3779;SDS011;1905;52.482;9.802;2023-02-08T04:21:07;33.67;;;16.87;;
3779;SDS011;1905;52.482;9.802;2023-02-08T04:23:36;29.80;;;16.30;;
3779;SDS011;1905;52.482;9.802;2023-02-08T04:26:03;31.83;;;14.93;;
3779;SDS011;1905;52.482;9.802;2023-02-08T04:28:32;42.97;;;16.27;;
3779;SDS011;1905;52.482;9.802;2023-02-08T04:31:00;31.73;;;15.47;;
3779;SDS011;1905;52.482;9.802;2023-02-08T04:33:28;32.27;;;13.73;;
3779;SDS011;1905;52.482;9.802;2023-02-08T04:35:55;32.43;;;12.80;;
3779;SDS011;1905;52.482;9.802;2023-02-08T04:38:23;36.43;;;14.87;;
3779;SDS011;1905;52.482;9.802;2023-02-08T04:40:52;39.97;;;15.70;;
3779;SDS011;1905;52.482;9.802;2023-02-08T04:43:19;34.37;;;17.43;;
3779;SDS011;1905;52.482;9.802;2023-02-08T04:45:48;49.67;;;16.57;;
3779;SDS011;1905;52.482;9.802;2023-02-08T04:48:16;40.27;;;15.73;;
3779;SDS011;1905;52.482;9.802;2023-02-08T04:50:43;42.50;;;17.03;;
3779;SDS011;1905;52.482;9.802;2023-02-08T04:53:12;26.23;;;14.90;;
3779;SDS011;1905;52.482;9.802;2023-02-08T04:55:40;36.40;;;16.27;;
3779;SDS011;1905;52.482;9.802;2023-02-08T04:58:09;34.17;;;14.87;;
3779;SDS011;1905;52.482;9.802;2023-02-08T05:00:36;29.60;;;13.57;;
3779;SDS011;1905;52.482;9.802;2023-02-08T05:03:04;42.87;;;16.50;;
3779;SDS011;1905;52.482;9.802;2023-02-08T05:05:32;35.73;;;17.90;;
3779;SDS011;1905;52.482;9.802;2023-02-08T05:07:59;44.53;;;17.57;;
3779;SDS011;1905;52.482;9.802;2023-02-08T05:10:27;34.10;;;16.63;;
3779;SDS011;1905;52.482;9.802;2023-02-08T05:12:55;30.83;;;13.90;;
3779;SDS011;1905;52.482;9.802;2023-02-08T05:15:24;40.60;;;16.53;;
3779;SDS011;1905;52.482;9.802;2023-02-08T05:17:51;30.70;;;16.53;;
3779;SDS011;1905;52.482;9.802;2023-02-08T05:20:19;39.70;;;17.07;;
3779;SDS011;1905;52.482;9.802;2023-02-08T05:22:46;54.20;;;18.90;;
3779;SDS011;1905;52.482;9.802;2023-02-08T05:25:14;32.67;;;17.03;;
3779;SDS011;1905;52.482;9.802;2023-02-08T05:27:43;42.57;;;16.40;;
3779;SDS011;1905;52.482;9.802;2023-02-08T05:30:10;31.33;;;15.17;;
3779;SDS011;1905;52.482;9.802;2023-02-08T05:32:39;37.90;;;16.97;;
3779;SDS011;1905;52.482;9.802;2023-02-08T05:35:07;30.67;;;14.60;;
3779;SDS011;1905;52.482;9.802;2023-02-08T05:37:35;34.00;;;15.37;;
3779;SDS011;1905;52.482;9.802;2023-02-08T05:40:03;34.43;;;15.30;;
3779;SDS011;1905;52.482;9.802;2023-02-08T05:42:31;36.77;;;15.50;;
3779;SDS011;1905;52.482;9.802;2023-02-08T05:44:58;32.40;;;15.93;;
3779;SDS011;1905;52.482;9.802;2023-02-08T05:47:26;44.40;;;17.50;;
3779;SDS011;1905;52.482;9.802;2023-02-08T05:49:55;30.80;;;15.70;;
3779;SDS011;1905;52.482;9.802;2023-02-08T05:52:22;43.07;;;18.97;;
3779;SDS011;1905;52.482;9.802;2023-02-08T05:54:50;41.47;;;16.50;;
3779;SDS011;1905;52.482;9.802;2023-02-08T05:57:17;31.33;;;15.47;;
3779;SDS011;1905;52.482;9.802;2023-02-08T05:59:45;38.10;;;18.73;;
3779;SDS011;1905;52.482;9.802;2023-02-08T06:02:12;34.93;;;16.13;;
3779;SDS011;1905;52.482;9.802;2023-02-08T06:04:40;41.57;;;16.93;;
3779;SDS011;1905;52.482;9.802;2023-02-08T06:07:09;50.47;;;22.20;;
3779;SDS011;1905;52.482;9.802;2023-02-08T06:09:36;45.57;;;17.20;;
3779;SDS011;1905;52.482;9.802;2023-02-08T06:12:04;40.80;;;18.13;;
3779;SDS011;1905;52.482;9.802;2023-02-08T06:14:32;42.03;;;15.70;;
3779;SDS011;1905;52.482;9.802;2023-02-08T06:16:59;36.80;;;20.40;;
3779;SDS011;1905;52.482;9.802;2023-02-08T06:19:27;41.10;;;17.93;;
3779;SDS011;1905;52.482;9.802;2023-02-08T06:21:54;45.50;;;18.03;;
3779;SDS011;1905;52.482;9.802;2023-02-08T06:24:23;51.87;;;18.83;;
3779;SDS011;1905;52.482;9.802;2023-02-08T06:26:51;35.57;;;16.50;;
3779;SDS011;1905;52.482;9.802;2023-02-08T06:29:18;40.27;;;15.53;;
3779;SDS011;1905;52.482;9.802;2023-02-08T06:31:46;34.37;;;17.50;;
3779;SDS011;1905;52.482;9.802;2023-02-08T06:34:14;48.67;;;18.23;;
3779;SDS011;1905;52.482;9.802;2023-02-08T06:36:41;35.07;;;14.47;;
3779;SDS011;1905;52.482;9.802;2023-02-08T06:39:10;34.97;;;16.73;;
3779;SDS011;1905;52.482;9.802;2023-02-08T06:41:40;32.33;;;18.10;;
3779;SDS011;1905;52.482;9.802;2023-02-08T06:44:11;34.80;;;15.80;;
3779;SDS011;1905;52.482;9.802;2023-02-08T06:46:38;27.23;;;15.80;;
3779;SDS011;1905;52.482;9.802;2023-02-08T06:49:06;34.20;;;16.10;;
3779;SDS011;1905;52.482;9.802;2023-02-08T06:51:33;40.80;;;17.77;;
3779;SDS011;1905;52.482;9.802;2023-02-08T06:54:01;37.97;;;17.30;;
3779;SDS011;1905;52.482;9.802;2023-02-08T06:56:29;39.30;;;17.13;;
3779;SDS011;1905;52.482;9.802;2023-02-08T06:58:58;47.47;;;20.40;;
3779;SDS011;1905;52.482;9.802;2023-02-08T07:01:25;33.60;;;16.20;;
3779;SDS011;1905;52.482;9.802;2023-02-08T07:03:53;37.27;;;16.07;;
3779;SDS011;1905;52.482;9.802;2023-02-08T07:06:21;36.03;;;18.10;;
3779;SDS011;1905;52.482;9.802;2023-02-08T07:08:48;51.33;;;19.53;;
3779;SDS011;1905;52.482;9.802;2023-02-08T07:11:16;39.43;;;16.80;;
3779;SDS011;1905;52.482;9.802;2023-02-08T07:13:46;37.50;;;16.53;;
3779;SDS011;1905;52.482;9.802;2023-02-08T07:16:16;37.10;;;17.70;;
3779;SDS011;1905;52.482;9.802;2023-02-08T07:18:44;38.17;;;17.80;;
3779;SDS011;1905;52.482;9.802;2023-02-08T07:21:12;37.90;;;16.30;;
3779;SDS011;1905;52.482;9.802;2023-02-08T07:23:40;46.93;;;21.00;;
3779;SDS011;1905;52.482;9.802;2023-02-08T07:26:09;33.93;;;16.30;;
3779;SDS011;1905;52.482;9.802;2023-02-08T07:28:37;34.97;;;17.17;;
3779;SDS011;1905;52.482;9.802;2023-02-08T07:31:05;38.17;;;16.60;;
3779;SDS011;1905;52.482;9.802;2023-02-08T07:33:34;35.83;;;16.90;;
3779;SDS011;1905;52.482;9.802;2023-02-08T07:36:02;30.40;;;15.17;;
3779;SDS011;1905;52.482;9.802;2023-02-08T07:38:30;47.97;;;17.67;;
3779;SDS011;1905;52.482;9.802;2023-02-08T07:40:59;39.50;;;19.77;;
3779;SDS011;1905;52.482;9.802;2023-02-08T07:43:27;37.43;;;19.00;;
3779;SDS011;1905;52.482;9.802;2023-02-08T07:45:58;44.13;;;17.17;;
3779;SDS011;1905;52.482;9.802;2023-02-08T07:48:25;41.60;;;19.70;;
3779;SDS011;1905;52.482;9.802;2023-02-08T07:50:54;65.27;;;19.30;;
3779;SDS011;1905;52.482;9.802;2023-02-08T07:53:22;39.63;;;18.47;;
3779;SDS011;1905;52.482;9.802;2023-02-08T07:55:49;34.60;;;19.00;;
3779;SDS011;1905;52.482;9.802;2023-02-08T07:58:17;55.83;;;21.00;;
3779;SDS011;1905;52.482;9.802;2023-02-08T08:00:44;44.63;;;20.97;;
3779;SDS011;1905;52.482;9.802;2023-02-08T08:03:12;39.00;;;19.10;;
3779;SDS011;1905;52.482;9.802;2023-02-08T08:05:40;46.57;;;20.10;;
3779;SDS011;1905;52.482;9.802;2023-02-08T08:08:09;44.00;;;21.93;;
3779;SDS011;1905;52.482;9.802;2023-02-08T08:10:37;42.77;;;18.30;;
3779;SDS011;1905;52.482;9.802;2023-02-08T08:13:06;51.20;;;17.40;;
3779;SDS011;1905;52.482;9.802;2023-02-08T08:15:33;36.83;;;17.43;;
3779;SDS011;1905;52.482;9.802;2023-02-08T08:18:01;40.00;;;18.50;;
3779;SDS011;1905;52.482;9.802;2023-02-08T08:20:28;34.07;;;16.40;;
3779;SDS011;1905;52.482;9.802;2023-02-08T08:22:56;41.40;;;16.83;;
3779;SDS011;1905;52.482;9.802;2023-02-08T08:25:24;45.40;;;17.40;;
3779;SDS011;1905;52.482;9.802;2023-02-08T08:27:53;49.33;;;18.63;;
3779;SDS011;1905;52.482;9.802;2023-02-08T08:30:21;44.80;;;16.90;;
3779;SDS011;1905;52.482;9.802;2023-02-08T08:32:48;47.60;;;18.50;;
3779;SDS011;1905;52.482;9.802;2023-02-08T08:35:16;29.33;;;15.37;;
3779;SDS011;1905;52.482;9.802;2023-02-08T08:37:44;47.63;;;18.47;;
3779;SDS011;1905;52.482;9.802;2023-02-08T08:40:11;42.87;;;17.47;;
3779;SDS011;1905;52.482;9.802;2023-02-08T08:42:40;37.17;;;17.57;;
3779;SDS011;1905;52.482;9.802;2023-02-08T08:45:08;29.30;;;16.13;;
3779;SDS011;1905;52.482;9.802;2023-02-08T08:47:36;35.17;;;19.23;;
3779;SDS011;1905;52.482;9.802;2023-02-08T08:50:04;35.70;;;16.90;;
3779;SDS011;1905;52.482;9.802;2023-02-08T08:52:32;34.27;;;15.57;;
3779;SDS011;1905;52.482;9.802;2023-02-08T08:55:00;28.93;;;15.00;;
3779;SDS011;1905;52.482;9.802;2023-02-08T08:57:27;39.23;;;17.57;;
3779;SDS011;1905;52.482;9.802;2023-02-08T08:59:56;36.47;;;15.80;;
3779;SDS011;1905;52.482;9.802;2023-02-08T09:02:23;35.33;;;17.93;;
3779;SDS011;1905;52.482;9.802;2023-02-08T09:04:51;45.73;;;18.70;;
3779;SDS011;1905;52.482;9.802;2023-02-08T09:07:18;32.37;;;14.37;;
3779;SDS011;1905;52.482;9.802;2023-02-08T09:09:46;42.27;;;15.07;;
3779;SDS011;1905;52.482;9.802;2023-02-08T09:12:13;53.77;;;19.80;;
3779;SDS011;1905;52.482;9.802;2023-02-08T09:14:41;42.30;;;17.17;;
3779;SDS011;1905;52.482;9.802;2023-02-08T09:17:11;39.53;;;16.80;;
3779;SDS011;1905;52.482;9.802;2023-02-08T09:19:38;37.73;;;17.53;;
3779;SDS011;1905;52.482;9.802;2023-02-08T09:22:07;48.53;;;17.90;;
3779;SDS011;1905;52.482;9.802;2023-02-08T09:24:35;31.60;;;13.17;;
3779;SDS011;1905;52.482;9.802;2023-02-08T09:27:02;36.40;;;17.60;;
3779;SDS011;1905;52.482;9.802;2023-02-08T09:29:30;38.13;;;19.60;;
3779;SDS011;1905;52.482;9.802;2023-02-08T09:31:59;39.70;;;16.63;;
3779;SDS011;1905;52.482;9.802;2023-02-08T09:34:27;30.37;;;17.50;;
3779;SDS011;1905;52.482;9.802;2023-02-08T09:36:55;40.60;;;15.87;;
3779;SDS011;1905;52.482;9.802;2023-02-08T09:39:24;35.90;;;15.63;;
3779;SDS011;1905;52.482;9.802;2023-02-08T09:41:58;34.20;;;17.73;;
3779;SDS011;1905;52.482;9.802;2023-02-08T09:44:46;35.20;;;16.80;;
3779;SDS011;1905;52.482;9.802;2023-02-08T09:47:22;38.87;;;18.27;;
3779;SDS011;1905;52.482;9.802;2023-02-08T09:49:57;42.33;;;17.93;;
3779;SDS011;1905;52.482;9.802;2023-02-08T09:52:32;34.87;;;16.00;;
3779;SDS011;1905;52.482;9.802;2023-02-08T09:55:08;42.03;;;14.20;;
3779;SDS011;1905;52.482;9.802;2023-02-08T09:57:47;31.77;;;14.87;;
3779;SDS011;1905;52.482;9.802;2023-02-08T10:00:20;29.90;;;14.70;;
3779;SDS011;1905;52.482;9.802;2023-02-08T10:02:53;29.30;;;16.00;;
3779;SDS011;1905;52.482;9.802;2023-02-08T10:05:27;36.17;;;17.20;;
3779;SDS011;1905;52.482;9.802;2023-02-08T10:07:56;36.33;;;17.23;;
3779;SDS011;1905;52.482;9.802;2023-02-08T10:10:29;33.73;;;15.70;;
3779;SDS011;1905;52.482;9.802;2023-02-08T10:13:07;31.43;;;15.23;;
3779;SDS011;1905;52.482;9.802;2023-02-08T10:15:47;27.20;;;15.00;;
3779;SDS011;1905;52.482;9.802;2023-02-08T10:18:22;41.23;;;14.93;;
3779;SDS011;1905;52.482;9.802;2023-02-08T10:21:05;35.60;;;16.63;;
3779;SDS011;1905;52.482;9.802;2023-02-08T10:23:47;44.13;;;16.53;;
3779;SDS011;1905;52.482;9.802;2023-02-08T10:26:31;32.90;;;14.60;;
3779;SDS011;1905;52.482;9.802;2023-02-08T10:29:07;28.77;;;16.27;;
3779;SDS011;1905;52.482;9.802;2023-02-08T10:31:50;32.80;;;15.43;;
3779;SDS011;1905;52.482;9.802;2023-02-08T10:34:34;36.33;;;14.70;;
3779;SDS011;1905;52.482;9.802;2023-02-08T10:37:12;21.53;;;13.37;;
3779;SDS011;1905;52.482;9.802;2023-02-08T10:39:43;37.50;;;16.63;;
3779;SDS011;1905;52.482;9.802;2023-02-08T10:42:12;32.87;;;15.47;;
3779;SDS011;1905;52.482;9.802;2023-02-08T10:44:46;25.43;;;13.97;;
3779;SDS011;1905;52.482;9.802;2023-02-08T10:47:22;24.23;;;13.47;;
3779;SDS011;1905;52.482;9.802;2023-02-08T10:50:04;27.50;;;14.63;;
3779;SDS011;1905;52.482;9.802;2023-02-08T10:52:40;28.17;;;13.77;;
3779;SDS011;1905;52.482;9.802;2023-02-08T10:55:11;23.10;;;11.43;;
3779;SDS011;1905;52.482;9.802;2023-02-08T10:57:40;29.73;;;13.70;;
3779;SDS011;1905;52.482;9.802;2023-02-08T11:00:10;24.27;;;12.80;;
3779;SDS011;1905;52.482;9.802;2023-02-08T11:02:44;26.07;;;12.07;;
3779;SDS011;1905;52.482;9.802;2023-02-08T11:05:18;29.70;;;13.20;;
3779;SDS011;1905;52.482;9.802;2023-02-08T11:07:54;20.80;;;11.50;;
3779;SDS011;1905;52.482;9.802;2023-02-08T11:10:31;29.40;;;13.37;;
3779;SDS011;1905;52.482;9.802;2023-02-08T11:12:59;40.63;;;22.00;;
3779;SDS011;1905;52.482;9.802;2023-02-08T11:15:33;36.87;;;13.73;;
3779;SDS011;1905;52.482;9.802;2023-02-08T11:18:06;25.03;;;11.87;;
3779;SDS011;1905;52.482;9.802;2023-02-08T11:20:46;25.20;;;12.20;;
3779;SDS011;1905;52.482;9.802;2023-02-08T11:23:21;22.30;;;11.07;;
3779;SDS011;1905;52.482;9.802;2023-02-08T11:25:52;20.00;;;10.80;;
3779;SDS011;1905;52.482;9.802;2023-02-08T11:28:21;23.50;;;11.50;;
3779;SDS011;1905;52.482;9.802;2023-02-08T11:30:54;28.10;;;12.40;;
3779;SDS011;1905;52.482;9.802;2023-02-08T11:33:27;24.30;;;12.00;;
3779;SDS011;1905;52.482;9.802;2023-02-08T11:35:58;28.60;;;12.73;;
3779;SDS011;1905;52.482;9.802;2023-02-08T11:38:33;28.10;;;14.43;;
3779;SDS011;1905;52.482;9.802;2023-02-08T11:41:03;30.33;;;12.00;;
3779;SDS011;1905;52.482;9.802;2023-02-08T11:43:40;24.80;;;11.90;;
3779;SDS011;1905;52.482;9.802;2023-02-08T11:46:08;24.60;;;13.73;;
3779;SDS011;1905;52.482;9.802;2023-02-08T11:48:38;20.37;;;10.43;;
3779;SDS011;1905;52.482;9.802;2023-02-08T11:51:11;25.93;;;13.00;;
3779;SDS011;1905;52.482;9.802;2023-02-08T11:53:46;25.20;;;12.07;;
3779;SDS011;1905;52.482;9.802;2023-02-08T11:56:15;25.17;;;11.07;;
3779;SDS011;1905;52.482;9.802;2023-02-08T11:58:55;21.77;;;11.43;;
3779;SDS011;1905;52.482;9.802;2023-02-08T12:01:25;21.87;;;11.73;;
3779;SDS011;1905;52.482;9.802;2023-02-08T12:03:55;26.93;;;11.20;;
3779;SDS011;1905;52.482;9.802;2023-02-08T12:06:35;20.30;;;11.53;;
3779;SDS011;1905;52.482;9.802;2023-02-08T12:09:17;18.73;;;11.90;;
3779;SDS011;1905;52.482;9.802;2023-02-08T12:11:54;22.17;;;12.00;;
3779;SDS011;1905;52.482;9.802;2023-02-08T12:14:37;23.17;;;11.10;;
3779;SDS011;1905;52.482;9.802;2023-02-08T12:17:17;25.30;;;13.70;;
3779;SDS011;1905;52.482;9.802;2023-02-08T12:19:58;20.80;;;10.83;;
3779;SDS011;1905;52.482;9.802;2023-02-08T12:22:41;58.17;;;30.80;;
3779;SDS011;1905;52.482;9.802;2023-02-08T12:25:23;23.00;;;11.17;;
3779;SDS011;1905;52.482;9.802;2023-02-08T12:27:57;18.20;;;8.83;;
3779;SDS011;1905;52.482;9.802;2023-02-08T12:30:32;22.87;;;10.50;;
3779;SDS011;1905;52.482;9.802;2023-02-08T12:33:05;17.80;;;9.50;;
3779;SDS011;1905;52.482;9.802;2023-02-08T12:35:56;27.97;;;10.83;;
3779;SDS011;1905;52.482;9.802;2023-02-08T12:38:44;26.00;;;10.33;;
3779;SDS011;1905;52.482;9.802;2023-02-08T12:41:46;21.57;;;12.77;;
3779;SDS011;1905;52.482;9.802;2023-02-08T12:44:45;19.03;;;10.20;;
3779;SDS011;1905;52.482;9.802;2023-02-08T12:47:32;19.40;;;11.00;;
3779;SDS011;1905;52.482;9.802;2023-02-08T12:50:29;15.53;;;8.10;;
3779;SDS011;1905;52.482;9.802;2023-02-08T12:53:07;13.60;;;8.40;;
3779;SDS011;1905;52.482;9.802;2023-02-08T12:55:47;17.27;;;7.53;;
3779;SDS011;1905;52.482;9.802;2023-02-08T12:58:23;23.67;;;8.70;;
3779;SDS011;1905;52.482;9.802;2023-02-08T13:00:55;19.37;;;8.60;;
3779;SDS011;1905;52.482;9.802;2023-02-08T13:03:30;16.33;;;8.07;;
3779;SDS011;1905;52.482;9.802;2023-02-08T13:06:05;13.03;;;7.80;;
3779;SDS011;1905;52.482;9.802;2023-02-08T13:08:35;18.90;;;9.57;;
3779;SDS011;1905;52.482;9.802;2023-02-08T13:11:09;11.20;;;7.30;;
3779;SDS011;1905;52.482;9.802;2023-02-08T13:13:50;17.27;;;8.50;;
3779;SDS011;1905;52.482;9.802;2023-02-08T13:16:24;21.90;;;7.53;;
3779;SDS011;1905;52.482;9.802;2023-02-08T13:19:01;27.50;;;15.83;;
3779;SDS011;1905;52.482;9.802;2023-02-08T13:21:37;17.23;;;9.80;;
3779;SDS011;1905;52.482;9.802;2023-02-08T13:24:11;16.30;;;9.87;;
3779;SDS011;1905;52.482;9.802;2023-02-08T13:26:52;15.93;;;7.40;;
3779;SDS011;1905;52.482;9.802;2023-02-08T13:29:21;13.70;;;7.93;;
3779;SDS011;1905;52.482;9.802;2023-02-08T13:31:55;12.90;;;7.77;;
3779;SDS011;1905;52.482;9.802;2023-02-08T13:34:27;12.63;;;7.03;;
3779;SDS011;1905;52.482;9.802;2023-02-08T13:37:00;12.47;;;7.63;;
3779;SDS011;1905;52.482;9.802;2023-02-08T13:39:38;11.97;;;6.53;;
3779;SDS011;1905;52.482;9.802;2023-02-08T13:42:17;13.10;;;7.30;;
3779;SDS011;1905;52.482;9.802;2023-02-08T13:44:49;12.87;;;7.30;;
3779;SDS011;1905;52.482;9.802;2023-02-08T13:47:21;19.67;;;6.27;;
3779;SDS011;1905;52.482;9.802;2023-02-08T13:49:52;11.57;;;7.43;;
3779;SDS011;1905;52.482;9.802;2023-02-08T14:01:16;10.87;;;6.67;;
3779;SDS011;1905;52.482;9.802;2023-02-08T14:06:44;10.10;;;5.70;;
3779;SDS011;1905;52.482;9.802;2023-02-08T14:09:18;15.70;;;7.40;;
3779;SDS011;1905;52.482;9.802;2023-02-08T14:11:51;8.07;;;5.20;;
3779;SDS011;1905;52.482;9.802;2023-02-08T14:14:22;13.93;;;7.20;;
3779;SDS011;1905;52.482;9.802;2023-02-08T14:17:10;15.10;;;6.07;;
3779;SDS011;1905;52.482;9.802;2023-02-08T14:19:45;7.33;;;5.60;;
3779;SDS011;1905;52.482;9.802;2023-02-08T14:22:23;13.50;;;6.43;;
3779;SDS011;1905;52.482;9.802;2023-02-08T14:25:03;16.57;;;7.23;;
3779;SDS011;1905;52.482;9.802;2023-02-08T14:27:35;14.57;;;6.40;;
3779;SDS011;1905;52.482;9.802;2023-02-08T14:30:06;11.70;;;7.67;;
3779;SDS011;1905;52.482;9.802;2023-02-08T14:32:48;15.03;;;6.03;;
3779;SDS011;1905;52.482;9.802;2023-02-08T14:35:19;14.97;;;7.57;;
3779;SDS011;1905;52.482;9.802;2023-02-08T14:37:50;9.70;;;6.60;;
3779;SDS011;1905;52.482;9.802;2023-02-08T14:40:57;13.03;;;8.00;;
3779;SDS011;1905;52.482;9.802;2023-02-08T14:43:26;12.53;;;5.23;;
3779;SDS011;1905;52.482;9.802;2023-02-08T14:45:57;15.03;;;6.67;;
3779;SDS011;1905;52.482;9.802;2023-02-08T14:49:10;26.53;;;11.23;;
3779;SDS011;1905;52.482;9.802;2023-02-08T14:51:40;25.07;;;10.73;;
3779;SDS011;1905;52.482;9.802;2023-02-08T14:54:15;15.73;;;8.13;;
3779;SDS011;1905;52.482;9.802;2023-02-08T14:56:52;21.57;;;8.60;;
3779;SDS011;1905;52.482;9.802;2023-02-08T14:59:24;9.20;;;6.10;;
3779;SDS011;1905;52.482;9.802;2023-02-08T15:01:54;13.30;;;7.50;;
3779;SDS011;1905;52.482;9.802;2023-02-08T15:04:26;17.10;;;8.30;;
3779;SDS011;1905;52.482;9.802;2023-02-08T15:09:45;23.03;;;9.73;;
3779;SDS011;1905;52.482;9.802;2023-02-08T15:12:14;25.80;;;11.17;;
3779;SDS011;1905;52.482;9.802;2023-02-08T15:14:48;19.23;;;10.43;;
3779;SDS011;1905;52.482;9.802;2023-02-08T15:17:23;23.63;;;11.13;;
3779;SDS011;1905;52.482;9.802;2023-02-08T15:20:00;19.07;;;10.40;;
3779;SDS011;1905;52.482;9.802;2023-02-08T15:22:33;15.00;;;9.70;;
3779;SDS011;1905;52.482;9.802;2023-02-08T15:25:12;18.17;;;9.10;;
3779;SDS011;1905;52.482;9.802;2023-02-08T15:27:47;18.97;;;8.87;;
3779;SDS011;1905;52.482;9.802;2023-02-08T15:30:23;24.43;;;11.07;;
3779;SDS011;1905;52.482;9.802;2023-02-08T15:32:53;20.30;;;11.00;;
3779;SDS011;1905;52.482;9.802;2023-02-08T15:35:23;19.47;;;11.30;;
3779;SDS011;1905;52.482;9.802;2023-02-08T15:37:52;15.40;;;8.63;;
3779;SDS011;1905;52.482;9.802;2023-02-08T15:40:25;24.87;;;12.20;;
3779;SDS011;1905;52.482;9.802;2023-02-08T15:42:54;17.00;;;9.77;;